sensor_id;sensor_type;location;lat;lon;timestamp;pressure;altitude;pressure_sealevel;temperature;humidity
62694;BME280;48759;52.544;13.418;2023-06-10T00:01:53;101009.16;;;11.23;nan
62694;BME280;48759;52.544;13.418;2023-06-10T00:04:24;101019.94;;;11.18;nan
62694;BME280;48759;52.544;13.418;2023-06-10T00:06:52;101017.13;;;11.11;nan
62694;BME280;48759;52.544;13.418;2023-06-10T00:09:19;101019.22;;;11.03;nan
62694;BME280;48759;52.544;13.418;2023-06-10T00:11:46;101015.41;;;11.04;nan
62694;BME280;48759;52.544;13.418;2023-06-10T00:14:13;101007.56;;;11.01;nan
62694;BME280;48759;52.544;13.418;2023-06-10T00:16:40;101007.41;;;11.09;nan
62694;BME280;48759;52.544;13.418;2023-06-10T00:19:10;101014.13;;;11.00;nan
62694;BME280;48759;52.544;13.418;2023-06-10T00:21:40;101005.19;;;10.98;nan
62694;BME280;48759;52.544;13.418;2023-06-10T00:24:07;100998.47;;;11.07;nan
62694;BME280;48759;52.544;13.418;2023-06-10T00:26:38;101011.97;;;10.95;nan
62694;BME280;48759;52.544;13.418;2023-06-10T00:29:04;101018.31;;;10.96;nan
62694;BME280;48759;52.544;13.418;2023-06-10T00:31:31;101000.13;;;10.95;nan
62694;BME280;48759;52.544;13.418;2023-06-10T00:33:58;101003.09;;;11.00;nan
62694;BME280;48759;52.544;13.418;2023-06-10T00:36:25;101006.41;;;10.89;nan
62694;BME280;48759;52.544;13.418;2023-06-10T00:38:53;100999.38;;;10.80;nan
62694;BME280;48759;52.544;13.418;2023-06-10T00:41:20;101004.22;;;10.78;nan
62694;BME280;48759;52.544;13.418;2023-06-10T00:43:46;101007.06;;;10.91;nan
62694;BME280;48759;52.544;13.418;2023-06-10T00:46:13;101008.06;;;10.83;nan
62694;BME280;48759;52.544;13.418;2023-06-10T00:48:42;100999.31;;;10.73;nan
62694;BME280;48759;52.544;13.418;2023-06-10T00:51:11;101006.31;;;10.76;nan
62694;BME280;48759;52.544;13.418;2023-06-10T00:53:40;100998.56;;;10.86;nan
62694;BME280;48759;52.544;13.418;2023-06-10T00:56:09;101001.72;;;10.83;nan
62694;BME280;48759;52.544;13.418;2023-06-10T00:58:36;100997.81;;;10.70;nan
62694;BME280;48759;52.544;13.418;2023-06-10T01:01:03;101002.03;;;10.66;nan
62694;BME280;48759;52.544;13.418;2023-06-10T01:03:30;101004.19;;;10.71;nan
62694;BME280;48759;52.544;13.418;2023-06-10T01:06:08;101014.06;;;10.65;nan
62694;BME280;48759;52.544;13.418;2023-06-10T01:08:41;101006.25;;;10.62;nan
62694;BME280;48759;52.544;13.418;2023-06-10T01:11:19;101014.94;;;10.66;nan
62694;BME280;48759;52.544;13.418;2023-06-10T01:13:49;101013.88;;;10.67;nan
62694;BME280;48759;52.544;13.418;2023-06-10T01:16:19;101013.63;;;10.62;nan
62694;BME280;48759;52.544;13.418;2023-06-10T01:18:47;101014.22;;;10.57;nan
62694;BME280;48759;52.544;13.418;2023-06-10T01:21:19;101019.00;;;10.49;nan
62694;BME280;48759;52.544;13.418;2023-06-10T01:23:50;101026.00;;;10.51;nan
62694;BME280;48759;52.544;13.418;2023-06-10T01:26:22;101019.41;;;10.46;nan
62694;BME280;48759;52.544;13.418;2023-06-10T01:28:54;101025.47;;;10.41;nan
62694;BME280;48759;52.544;13.418;2023-06-10T01:31:31;101024.63;;;10.41;nan
62694;BME280;48759;52.544;13.418;2023-06-10T01:34:03;101024.56;;;10.34;nan
62694;BME280;48759;52.544;13.418;2023-06-10T01:36:35;101026.09;;;10.36;nan
62694;BME280;48759;52.544;13.418;2023-06-10T01:39:04;101021.56;;;10.29;nan
62694;BME280;48759;52.544;13.418;2023-06-10T01:41:31;101016.47;;;10.26;nan
62694;BME280;48759;52.544;13.418;2023-06-10T01:43:59;101014.00;;;10.31;nan
62694;BME280;48759;52.544;13.418;2023-06-10T01:46:27;101018.63;;;10.30;nan
62694;BME280;48759;52.544;13.418;2023-06-10T01:48:54;101030.06;;;10.34;nan
62694;BME280;48759;52.544;13.418;2023-06-10T01:51:20;101026.28;;;10.35;nan
62694;BME280;48759;52.544;13.418;2023-06-10T01:53:48;101027.47;;;10.26;nan
62694;BME280;48759;52.544;13.418;2023-06-10T01:56:15;101026.41;;;10.27;nan
62694;BME280;48759;52.544;13.418;2023-06-10T01:58:45;101026.34;;;10.20;nan
62694;BME280;48759;52.544;13.418;2023-06-10T02:01:11;101022.94;;;10.18;nan
62694;BME280;48759;52.544;13.418;2023-06-10T02:03:38;101034.56;;;10.14;nan
62694;BME280;48759;52.544;13.418;2023-06-10T02:06:05;101029.19;;;10.06;nan
62694;BME280;48759;52.544;13.418;2023-06-10T02:08:32;101024.78;;;10.11;nan
62694;BME280;48759;52.544;13.418;2023-06-10T02:11:00;101034.94;;;10.11;nan
62694;BME280;48759;52.544;13.418;2023-06-10T02:13:27;101030.75;;;10.15;nan
62694;BME280;48759;52.544;13.418;2023-06-10T02:15:55;101021.00;;;10.12;nan
62694;BME280;48759;52.544;13.418;2023-06-10T02:18:23;101033.81;;;10.05;nan
62694;BME280;48759;52.544;13.418;2023-06-10T02:20:50;101033.28;;;9.95;nan
62694;BME280;48759;52.544;13.418;2023-06-10T02:23:17;101034.81;;;9.97;nan
62694;BME280;48759;52.544;13.418;2023-06-10T02:25:44;101034.00;;;10.04;nan
62694;BME280;48759;52.544;13.418;2023-06-10T02:28:12;101039.19;;;9.92;nan
62694;BME280;48759;52.544;13.418;2023-06-10T02:30:41;101036.38;;;9.85;nan
62694;BME280;48759;52.544;13.418;2023-06-10T02:33:08;101035.19;;;9.94;nan
62694;BME280;48759;52.544;13.418;2023-06-10T02:35:36;101036.50;;;9.98;nan
62694;BME280;48759;52.544;13.418;2023-06-10T02:38:03;101036.88;;;9.95;nan
62694;BME280;48759;52.544;13.418;2023-06-10T02:40:30;101036.03;;;9.95;nan
62694;BME280;48759;52.544;13.418;2023-06-10T02:42:58;101035.59;;;9.91;nan
62694;BME280;48759;52.544;13.418;2023-06-10T02:45:26;101033.47;;;9.93;nan
62694;BME280;48759;52.544;13.418;2023-06-10T02:47:53;101035.59;;;9.91;nan
62694;BME280;48759;52.544;13.418;2023-06-10T02:50:20;101033.09;;;9.96;nan
62694;BME280;48759;52.544;13.418;2023-06-10T02:52:48;101033.03;;;9.90;nan
62694;BME280;48759;52.544;13.418;2023-06-10T02:55:17;101039.38;;;9.90;nan
62694;BME280;48759;52.544;13.418;2023-06-10T02:57:44;101043.03;;;9.76;nan
62694;BME280;48759;52.544;13.418;2023-06-10T03:00:12;101038.84;;;9.80;nan
62694;BME280;48759;52.544;13.418;2023-06-10T03:02:43;101041.13;;;9.77;nan
62694;BME280;48759;52.544;13.418;2023-06-10T03:05:11;101032.16;;;9.89;nan
62694;BME280;48759;52.544;13.418;2023-06-10T03:07:38;101038.06;;;9.86;nan
62694;BME280;48759;52.544;13.418;2023-06-10T03:10:07;101039.38;;;9.90;nan
62694;BME280;48759;52.544;13.418;2023-06-10T03:12:33;101041.28;;;9.90;nan
62694;BME280;48759;52.544;13.418;2023-06-10T03:15:00;101045.66;;;9.84;nan
62694;BME280;48759;52.544;13.418;2023-06-10T03:17:29;101046.97;;;9.88;nan
62694;BME280;48759;52.544;13.418;2023-06-10T03:19:58;101039.38;;;9.90;nan
62694;BME280;48759;52.544;13.418;2023-06-10T03:22:25;101036.50;;;9.98;nan
62694;BME280;48759;52.544;13.418;2023-06-10T03:24:54;101039.38;;;9.90;nan
62694;BME280;48759;52.544;13.418;2023-06-10T03:27:22;101042.78;;;9.92;nan
62694;BME280;48759;52.544;13.418;2023-06-10T03:29:49;101041.03;;;9.85;nan
62694;BME280;48759;52.544;13.418;2023-06-10T03:32:16;101047.88;;;9.95;nan
62694;BME280;48759;52.544;13.418;2023-06-10T03:34:43;101055.22;;;10.10;nan
62694;BME280;48759;52.544;13.418;2023-06-10T03:37:14;101053.00;;;9.98;nan
62694;BME280;48759;52.544;13.418;2023-06-10T03:39:41;101057.34;;;10.08;nan
62694;BME280;48759;52.544;13.418;2023-06-10T03:42:08;101060.53;;;10.11;nan
62694;BME280;48759;52.544;13.418;2023-06-10T03:44:34;101054.06;;;10.19;nan
62694;BME280;48759;52.544;13.418;2023-06-10T03:47:03;101052.34;;;10.18;nan
62694;BME280;48759;52.544;13.418;2023-06-10T03:49:30;101051.44;;;10.11;nan
62694;BME280;48759;52.544;13.418;2023-06-10T03:51:58;101048.97;;;10.16;nan
62694;BME280;48759;52.544;13.418;2023-06-10T03:54:26;101055.75;;;10.20;nan
62694;BME280;48759;52.544;13.418;2023-06-10T03:56:54;101067.19;;;10.17;nan
62694;BME280;48759;52.544;13.418;2023-06-10T03:59:24;101063.88;;;10.28;nan
62694;BME280;48759;52.544;13.418;2023-06-10T04:01:51;101059.84;;;10.24;nan
62694;BME280;48759;52.544;13.418;2023-06-10T04:04:19;101067.97;;;10.32;nan
62694;BME280;48759;52.544;13.418;2023-06-10T04:06:49;101064.00;;;10.41;nan
62694;BME280;48759;52.544;13.418;2023-06-10T04:09:16;101067.22;;;10.45;nan
62694;BME280;48759;52.544;13.418;2023-06-10T04:11:55;101070.53;;;10.55;nan
62694;BME280;48759;52.544;13.418;2023-06-10T04:14:23;101065.03;;;10.55;nan
62694;BME280;48759;52.544;13.418;2023-06-10T04:16:50;101069.75;;;10.61;nan
62694;BME280;48759;52.544;13.418;2023-06-10T04:19:16;101067.03;;;10.67;nan
62694;BME280;48759;52.544;13.418;2023-06-10T04:21:43;101076.16;;;10.68;nan
62694;BME280;48759;52.544;13.418;2023-06-10T04:24:10;101071.75;;;10.73;nan
62694;BME280;48759;52.544;13.418;2023-06-10T04:26:37;101062.72;;;10.80;nan
62694;BME280;48759;52.544;13.418;2023-06-10T04:29:05;101069.25;;;10.79;nan
62694;BME280;48759;52.544;13.418;2023-06-10T04:31:32;101063.19;;;10.90;nan
62694;BME280;48759;52.544;13.418;2023-06-10T04:33:59;101059.38;;;10.91;nan
62694;BME280;48759;52.544;13.418;2023-06-10T04:36:27;101060.38;;;11.11;nan
62694;BME280;48759;52.544;13.418;2023-06-10T04:38:55;101062.53;;;11.16;nan
62694;BME280;48759;52.544;13.418;2023-06-10T04:41:21;101067.84;;;11.17;nan
62694;BME280;48759;52.544;13.418;2023-06-10T04:43:48;101076.44;;;11.07;nan
62694;BME280;48759;52.544;13.418;2023-06-10T04:46:16;101078.59;;;11.12;nan
62694;BME280;48759;52.544;13.418;2023-06-10T04:48:44;101082.06;;;11.27;nan
62694;BME280;48759;52.544;13.418;2023-06-10T04:51:12;101078.28;;;11.28;nan
62694;BME280;48759;52.544;13.418;2023-06-10T04:53:39;101077.72;;;11.39;nan
62694;BME280;48759;52.544;13.418;2023-06-10T04:56:08;101083.47;;;11.44;nan
62694;BME280;48759;52.544;13.418;2023-06-10T04:58:35;101089.47;;;11.55;nan
62694;BME280;48759;52.544;13.418;2023-06-10T05:01:02;101089.97;;;11.65;nan
62694;BME280;48759;52.544;13.418;2023-06-10T05:03:30;101096.69;;;11.56;nan
62694;BME280;48759;52.544;13.418;2023-06-10T05:05:57;101095.88;;;11.62;nan
62694;BME280;48759;52.544;13.418;2023-06-10T05:08:28;101096.34;;;11.65;nan
62694;BME280;48759;52.544;13.418;2023-06-10T05:10:58;101097.63;;;11.69;nan
62694;BME280;48759;52.544;13.418;2023-06-10T05:13:25;101093.84;;;11.77;nan
62694;BME280;48759;52.544;13.418;2023-06-10T05:15:52;101100.22;;;11.84;nan
62694;BME280;48759;52.544;13.418;2023-06-10T05:18:20;101098.53;;;11.83;nan
62694;BME280;48759;52.544;13.418;2023-06-10T05:20:48;101099.81;;;11.87;nan
62694;BME280;48759;52.544;13.418;2023-06-10T05:23:15;101108.22;;;12.13;nan
62694;BME280;48759;52.544;13.418;2023-06-10T05:25:43;101109.94;;;12.27;nan
62694;BME280;48759;52.544;13.418;2023-06-10T05:28:10;101110.59;;;12.43;nan
62694;BME280;48759;52.544;13.418;2023-06-10T05:30:39;101107.47;;;12.66;nan
62694;BME280;48759;52.544;13.418;2023-06-10T05:33:06;101109.81;;;12.95;nan
62694;BME280;48759;52.544;13.418;2023-06-10T05:35:32;101107.63;;;13.43;nan
62694;BME280;48759;52.544;13.418;2023-06-10T05:38:02;101112.91;;;13.64;nan
62694;BME280;48759;52.544;13.418;2023-06-10T05:40:28;101103.66;;;13.97;nan
62694;BME280;48759;52.544;13.418;2023-06-10T05:42:56;101104.81;;;14.21;nan
62694;BME280;48759;52.544;13.418;2023-06-10T05:45:23;101112.78;;;14.48;nan
62694;BME280;48759;52.544;13.418;2023-06-10T05:47:54;101106.28;;;14.61;nan
62694;BME280;48759;52.544;13.418;2023-06-10T05:50:21;101109.16;;;14.79;nan
62694;BME280;48759;52.544;13.418;2023-06-10T05:52:47;101104.84;;;15.08;nan
62694;BME280;48759;52.544;13.418;2023-06-10T05:55:15;101106.81;;;15.01;nan
62694;BME280;48759;52.544;13.418;2023-06-10T05:57:44;101107.97;;;15.18;nan
62694;BME280;48759;52.544;13.418;2023-06-10T06:00:15;101112.09;;;15.52;nan
62694;BME280;48759;52.544;13.418;2023-06-10T06:02:44;101113.56;;;15.55;nan
62694;BME280;48759;52.544;13.418;2023-06-10T06:05:11;101110.81;;;15.73;nan
62694;BME280;48759;52.544;13.418;2023-06-10T06:07:40;101120.34;;;15.77;nan
62694;BME280;48759;52.544;13.418;2023-06-10T06:10:07;101115.28;;;15.74;nan
62694;BME280;48759;52.544;13.418;2023-06-10T06:12:36;101118.34;;;15.84;nan
62694;BME280;48759;52.544;13.418;2023-06-10T06:15:03;101117.13;;;15.98;nan
62694;BME280;48759;52.544;13.418;2023-06-10T06:17:30;101123.91;;;16.21;nan
62694;BME280;48759;52.544;13.418;2023-06-10T06:19:59;101130.22;;;15.91;nan
62694;BME280;48759;52.544;13.418;2023-06-10T06:22:27;101126.84;;;15.89;nan
62694;BME280;48759;52.544;13.418;2023-06-10T06:24:58;101131.78;;;15.87;nan
62694;BME280;48759;52.544;13.418;2023-06-10T06:27:25;101126.84;;;15.71;nan
62694;BME280;48759;52.544;13.418;2023-06-10T06:29:59;101128.53;;;15.90;nan
62694;BME280;48759;52.544;13.418;2023-06-10T06:32:27;101138.78;;;16.08;nan
62694;BME280;48759;52.544;13.418;2023-06-10T06:34:54;101133.38;;;16.31;nan
62694;BME280;48759;52.544;13.418;2023-06-10T06:37:23;101148.28;;;16.49;nan
62694;BME280;48759;52.544;13.418;2023-06-10T06:39:51;101143.34;;;16.80;nan
62694;BME280;48759;52.544;13.418;2023-06-10T06:42:19;101142.22;;;17.11;nan
62694;BME280;48759;52.544;13.418;2023-06-10T06:44:47;101145.38;;;17.15;nan
62694;BME280;48759;52.544;13.418;2023-06-10T06:47:16;101149.22;;;16.72;nan
62694;BME280;48759;52.544;13.418;2023-06-10T06:49:45;101156.03;;;16.76;nan
62694;BME280;48759;52.544;13.418;2023-06-10T06:52:12;101154.97;;;16.89;nan
62694;BME280;48759;52.544;13.418;2023-06-10T06:54:38;101152.75;;;17.21;nan
62694;BME280;48759;52.544;13.418;2023-06-10T06:57:06;101158.81;;;16.88;nan
62694;BME280;48759;52.544;13.418;2023-06-10T06:59:33;101160.06;;;16.92;nan
62694;BME280;48759;52.544;13.418;2023-06-10T07:02:00;101153.97;;;17.48;nan
62694;BME280;48759;52.544;13.418;2023-06-10T07:04:28;101159.75;;;18.05;nan
62694;BME280;48759;52.544;13.418;2023-06-10T07:06:55;101163.16;;;18.35;nan
62694;BME280;48759;52.544;13.418;2023-06-10T07:09:22;101160.22;;;18.54;nan
62694;BME280;48759;52.544;13.418;2023-06-10T07:11:49;101158.81;;;18.96;nan
62694;BME280;48759;52.544;13.418;2023-06-10T07:14:16;101168.38;;;19.51;nan
62694;BME280;48759;52.544;13.418;2023-06-10T07:16:42;101164.94;;;19.43;nan
62694;BME280;48759;52.544;13.418;2023-06-10T07:19:10;101160.94;;;19.56;nan
62694;BME280;48759;52.544;13.418;2023-06-10T07:21:39;101167.19;;;19.46;nan
62694;BME280;48759;52.544;13.418;2023-06-10T07:24:06;101171.88;;;18.79;nan
62694;BME280;48759;52.544;13.418;2023-06-10T07:26:33;101162.25;;;19.03;nan
62694;BME280;48759;52.544;13.418;2023-06-10T07:28:59;101174.94;;;18.94;nan
62694;BME280;48759;52.544;13.418;2023-06-10T07:31:26;101175.13;;;19.04;nan
62694;BME280;48759;52.544;13.418;2023-06-10T07:33:53;101186.22;;;19.33;nan
62694;BME280;48759;52.544;13.418;2023-06-10T07:36:19;101181.38;;;19.12;nan
62694;BME280;48759;52.544;13.418;2023-06-10T07:38:48;101184.28;;;19.50;nan
62694;BME280;48759;52.544;13.418;2023-06-10T07:41:17;101179.03;;;19.54;nan
62694;BME280;48759;52.544;13.418;2023-06-10T07:43:44;101192.66;;;19.50;nan
62694;BME280;48759;52.544;13.418;2023-06-10T07:46:11;101193.75;;;19.32;nan
62694;BME280;48759;52.544;13.418;2023-06-10T07:48:40;101192.03;;;19.15;nan
62694;BME280;48759;52.544;13.418;2023-06-10T07:51:06;101199.78;;;19.41;nan
62694;BME280;48759;52.544;13.418;2023-06-10T07:53:33;101189.50;;;19.63;nan
62694;BME280;48759;52.544;13.418;2023-06-10T07:56:02;101185.38;;;19.49;nan
62694;BME280;48759;52.544;13.418;2023-06-10T07:58:28;101185.88;;;19.29;nan
62694;BME280;48759;52.544;13.418;2023-06-10T08:00:55;101194.81;;;19.81;nan
62694;BME280;48759;52.544;13.418;2023-06-10T08:03:24;101186.78;;;19.68;nan
62694;BME280;48759;52.544;13.418;2023-06-10T08:05:51;101187.28;;;19.99;nan
62694;BME280;48759;52.544;13.418;2023-06-10T08:08:18;101176.56;;;20.12;nan
62694;BME280;48759;52.544;13.418;2023-06-10T08:10:45;101182.09;;;20.29;nan
62694;BME280;48759;52.544;13.418;2023-06-10T08:13:13;101183.38;;;20.00;nan
62694;BME280;48759;52.544;13.418;2023-06-10T08:15:40;101193.19;;;20.02;nan
62694;BME280;48759;52.544;13.418;2023-06-10T08:18:06;101189.69;;;19.73;nan
62694;BME280;48759;52.544;13.418;2023-06-10T08:20:33;101194.41;;;19.73;nan
62694;BME280;48759;52.544;13.418;2023-06-10T08:23:00;101204.44;;;19.52;nan
62694;BME280;48759;52.544;13.418;2023-06-10T08:25:27;101193.94;;;19.59;nan
62694;BME280;48759;52.544;13.418;2023-06-10T08:27:54;101198.38;;;19.94;nan
62694;BME280;48759;52.544;13.418;2023-06-10T08:30:23;101200.97;;;20.39;nan
62694;BME280;48759;52.544;13.418;2023-06-10T08:32:50;101198.84;;;20.73;nan
62694;BME280;48759;52.544;13.418;2023-06-10T08:35:18;101207.31;;;21.05;nan
62694;BME280;48759;52.544;13.418;2023-06-10T08:37:44;101206.00;;;21.81;nan
62694;BME280;48759;52.544;13.418;2023-06-10T08:40:12;101213.25;;;21.72;nan
62694;BME280;48759;52.544;13.418;2023-06-10T08:42:45;101216.81;;;21.30;nan
62694;BME280;48759;52.544;13.418;2023-06-10T08:45:17;101216.94;;;21.41;nan
62694;BME280;48759;52.544;13.418;2023-06-10T08:47:46;101220.81;;;21.13;nan
62694;BME280;48759;52.544;13.418;2023-06-10T08:50:18;101215.00;;;20.22;nan
62694;BME280;48759;52.544;13.418;2023-06-10T08:52:48;101221.94;;;20.19;nan
62694;BME280;48759;52.544;13.418;2023-06-10T08:55:21;101213.69;;;20.30;nan
62694;BME280;48759;52.544;13.418;2023-06-10T08:57:52;101209.66;;;20.42;nan
62694;BME280;48759;52.544;13.418;2023-06-10T09:00:19;101216.94;;;20.43;nan
62694;BME280;48759;52.544;13.418;2023-06-10T09:02:51;101214.16;;;20.43;nan
62694;BME280;48759;52.544;13.418;2023-06-10T09:05:19;101217.00;;;20.48;nan
62694;BME280;48759;52.544;13.418;2023-06-10T09:07:49;101221.09;;;20.19;nan
62694;BME280;48759;52.544;13.418;2023-06-10T09:10:17;101212.06;;;20.12;nan
62694;BME280;48759;52.544;13.418;2023-06-10T09:12:45;101221.31;;;19.96;nan
62694;BME280;48759;52.544;13.418;2023-06-10T09:15:12;101227.50;;;19.47;nan
62694;BME280;48759;52.544;13.418;2023-06-10T09:17:41;101229.03;;;19.38;nan
62694;BME280;48759;52.544;13.418;2023-06-10T09:20:12;101226.91;;;19.45;nan
62694;BME280;48759;52.544;13.418;2023-06-10T09:22:42;101225.38;;;19.38;nan
62694;BME280;48759;52.544;13.418;2023-06-10T09:25:14;101231.38;;;19.30;nan
62694;BME280;48759;52.544;13.418;2023-06-10T09:27:48;101228.53;;;18.96;nan
62694;BME280;48759;52.544;13.418;2023-06-10T09:30:29;101227.25;;;18.35;nan
62694;BME280;48759;52.544;13.418;2023-06-10T09:32:58;101228.91;;;18.60;nan
62694;BME280;48759;52.544;13.418;2023-06-10T09:35:29;101226.19;;;18.48;nan
62694;BME280;48759;52.544;13.418;2023-06-10T09:37:58;101229.91;;;18.54;nan
62694;BME280;48759;52.544;13.418;2023-06-10T09:40:26;101236.63;;;18.81;nan
62694;BME280;48759;52.544;13.418;2023-06-10T09:42:56;101234.25;;;18.90;nan
62694;BME280;48759;52.544;13.418;2023-06-10T09:45:30;101229.03;;;18.93;nan
62694;BME280;48759;52.544;13.418;2023-06-10T09:48:01;101232.66;;;18.94;nan
62694;BME280;48759;52.544;13.418;2023-06-10T09:50:37;101227.84;;;19.06;nan
62694;BME280;48759;52.544;13.418;2023-06-10T09:53:12;101223.81;;;18.97;nan
62694;BME280;48759;52.544;13.418;2023-06-10T09:55:43;101227.56;;;19.19;nan
62694;BME280;48759;52.544;13.418;2023-06-10T09:58:11;101220.50;;;19.28;nan
62694;BME280;48759;52.544;13.418;2023-06-10T10:00:41;101230.00;;;19.16;nan
62694;BME280;48759;52.544;13.418;2023-06-10T10:03:09;101221.25;;;18.95;nan
62694;BME280;48759;52.544;13.418;2023-06-10T10:05:37;101228.09;;;19.33;nan
62694;BME280;48759;52.544;13.418;2023-06-10T10:08:04;101228.59;;;19.46;nan
62694;BME280;48759;52.544;13.418;2023-06-10T10:10:35;101228.97;;;19.50;nan
62694;BME280;48759;52.544;13.418;2023-06-10T10:13:04;101230.97;;;19.71;nan
62694;BME280;48759;52.544;13.418;2023-06-10T10:15:38;101229.88;;;19.72;nan
62694;BME280;48759;52.544;13.418;2023-06-10T10:18:09;101228.59;;;19.97;nan
62694;BME280;48759;52.544;13.418;2023-06-10T10:20:46;101233.81;;;20.10;nan
62694;BME280;48759;52.544;13.418;2023-06-10T10:23:14;101235.00;;;20.14;nan
62694;BME280;48759;52.544;13.418;2023-06-10T10:25:43;101228.53;;;20.30;nan
62694;BME280;48759;52.544;13.418;2023-06-10T10:28:11;101229.91;;;20.11;nan
62694;BME280;48759;52.544;13.418;2023-06-10T10:30:42;101231.28;;;20.08;nan
62694;BME280;48759;52.544;13.418;2023-06-10T10:33:12;101231.41;;;19.97;nan
62694;BME280;48759;52.544;13.418;2023-06-10T10:35:45;101235.34;;;20.01;nan
62694;BME280;48759;52.544;13.418;2023-06-10T10:38:12;101224.63;;;19.93;nan
62694;BME280;48759;52.544;13.418;2023-06-10T10:40:39;101232.31;;;19.85;nan
62694;BME280;48759;52.544;13.418;2023-06-10T10:43:07;101228.34;;;19.81;nan
62694;BME280;48759;52.544;13.418;2023-06-10T10:45:34;101226.97;;;19.84;nan
62694;BME280;48759;52.544;13.418;2023-06-10T10:48:07;101208.84;;;19.86;nan
62694;BME280;48759;52.544;13.418;2023-06-10T10:50:37;101213.91;;;19.68;nan
62694;BME280;48759;52.544;13.418;2023-06-10T10:53:06;101208.34;;;19.90;nan
62694;BME280;48759;52.544;13.418;2023-06-10T10:55:33;101195.22;;;19.90;nan
62694;BME280;48759;52.544;13.418;2023-06-10T10:58:03;101192.88;;;19.99;nan
62694;BME280;48759;52.544;13.418;2023-06-10T11:00:31;101176.50;;;20.29;nan
62694;BME280;48759;52.544;13.418;2023-06-10T11:03:03;101183.19;;;20.72;nan
62694;BME280;48759;52.544;13.418;2023-06-10T11:05:35;101182.91;;;21.27;nan
62694;BME280;48759;52.544;13.418;2023-06-10T11:08:03;101182.72;;;21.39;nan
62694;BME280;48759;52.544;13.418;2023-06-10T11:10:33;101180.47;;;21.35;nan
62694;BME280;48759;52.544;13.418;2023-06-10T11:13:06;101177.72;;;21.41;nan
62694;BME280;48759;52.544;13.418;2023-06-10T11:15:43;101172.75;;;21.53;nan
62694;BME280;48759;52.544;13.418;2023-06-10T11:18:15;101179.53;;;21.99;nan
62694;BME280;48759;52.544;13.418;2023-06-10T11:20:59;101174.38;;;22.33;nan
62694;BME280;48759;52.544;13.418;2023-06-10T11:23:33;101178.81;;;22.29;nan
62694;BME280;48759;52.544;13.418;2023-06-10T11:26:20;101180.84;;;22.38;nan
62694;BME280;48759;52.544;13.418;2023-06-10T11:29:09;101178.75;;;22.86;nan
62694;BME280;48759;52.544;13.418;2023-06-10T11:31:46;101179.97;;;23.20;nan
62694;BME280;48759;52.544;13.418;2023-06-10T11:34:21;101175.16;;;23.41;nan
62694;BME280;48759;52.544;13.418;2023-06-10T11:36:50;101183.59;;;23.67;nan
62694;BME280;48759;52.544;13.418;2023-06-10T11:39:19;101192.00;;;23.87;nan
62694;BME280;48759;52.544;13.418;2023-06-10T11:41:50;101181.91;;;23.25;nan
62694;BME280;48759;52.544;13.418;2023-06-10T11:44:18;101186.41;;;23.67;nan
62694;BME280;48759;52.544;13.418;2023-06-10T11:46:47;101186.63;;;23.14;nan
62694;BME280;48759;52.544;13.418;2023-06-10T11:49:15;101194.97;;;22.69;nan
62694;BME280;48759;52.544;13.418;2023-06-10T11:51:42;101191.66;;;22.87;nan
62694;BME280;48759;52.544;13.418;2023-06-10T11:54:15;101190.28;;;23.00;nan
62694;BME280;48759;52.544;13.418;2023-06-10T11:56:44;101198.16;;;22.98;nan
62694;BME280;48759;52.544;13.418;2023-06-10T11:59:12;101191.97;;;23.01;nan
62694;BME280;48759;52.544;13.418;2023-06-10T12:01:43;101195.41;;;23.33;nan
62694;BME280;48759;52.544;13.418;2023-06-10T12:04:12;101184.72;;;23.30;nan
62694;BME280;48759;52.544;13.418;2023-06-10T12:06:42;101188.63;;;23.54;nan
62694;BME280;48759;52.544;13.418;2023-06-10T12:09:18;101184.72;;;23.60;nan
62694;BME280;48759;52.544;13.418;2023-06-10T12:11:45;101184.97;;;23.64;nan
62694;BME280;48759;52.544;13.418;2023-06-10T12:14:16;101184.13;;;23.79;nan
62694;BME280;48759;52.544;13.418;2023-06-10T12:16:48;101183.78;;;24.11;nan
62694;BME280;48759;52.544;13.418;2023-06-10T12:19:15;101175.72;;;23.79;nan
62694;BME280;48759;52.544;13.418;2023-06-10T12:21:44;101180.47;;;23.78;nan
62694;BME280;48759;52.544;13.418;2023-06-10T12:24:11;101179.59;;;23.98;nan
62694;BME280;48759;52.544;13.418;2023-06-10T12:26:42;101172.59;;;24.00;nan
62694;BME280;48759;52.544;13.418;2023-06-10T12:29:29;101174.44;;;24.35;nan
62694;BME280;48759;52.544;13.418;2023-06-10T12:31:58;101173.66;;;24.74;nan
62694;BME280;48759;52.544;13.418;2023-06-10T12:34:32;101165.97;;;24.95;nan
62694;BME280;48759;52.544;13.418;2023-06-10T12:37:02;101166.69;;;25.10;nan
62694;BME280;48759;52.544;13.418;2023-06-10T12:39:31;101159.53;;;25.86;nan
62694;BME280;48759;52.544;13.418;2023-06-10T12:41:58;101160.47;;;25.76;nan
62694;BME280;48759;52.544;13.418;2023-06-10T12:44:31;101159.41;;;25.72;nan
62694;BME280;48759;52.544;13.418;2023-06-10T12:46:59;101152.94;;;25.38;nan
62694;BME280;48759;52.544;13.418;2023-06-10T12:49:26;101153.28;;;25.65;nan
62694;BME280;48759;52.544;13.418;2023-06-10T12:51:54;101142.31;;;25.59;nan
62694;BME280;48759;52.544;13.418;2023-06-10T12:54:21;101149.47;;;25.46;nan
62694;BME280;48759;52.544;13.418;2023-06-10T12:56:48;101135.94;;;25.48;nan
62694;BME280;48759;52.544;13.418;2023-06-10T12:59:15;101148.56;;;25.56;nan
62694;BME280;48759;52.544;13.418;2023-06-10T13:01:44;101144.25;;;25.63;nan
62694;BME280;48759;52.544;13.418;2023-06-10T13:04:11;101134.50;;;25.79;nan
62694;BME280;48759;52.544;13.418;2023-06-10T13:06:37;101130.38;;;26.38;nan
62694;BME280;48759;52.544;13.418;2023-06-10T13:09:07;101137.31;;;26.88;nan